Time;durP1;ratioP1;P1;durP2;ratioP2;P2;SDS_P1;SDS_P2;PMS_P1;PMS_P2;Temp;Humidity;BMP_temperature;BMP_pressure;BME280_temperature;BME280_humidity;BME280_pressure;Samples;Min_cycle;Max_cycle;Signal;HPM_P1;HPM_P2
2022/09/28 00:01:46;;;;;;;24.42;17.05;;;;;;;6.97;100.00;99491.75;5032004;28;20076;-59
2022/09/28 00:04:12;;;;;;;23.98;17.02;;;;;;;6.96;100.00;99487.38;5032174;28;20183;-59
2022/09/28 00:06:37;;;;;;;24.60;17.60;;;;;;;7.01;100.00;99489.97;5032183;28;20025;-59
2022/09/28 00:09:03;;;;;;;24.65;18.98;;;;;;;7.03;100.00;99495.19;5029400;28;20056;-59
2022/09/28 00:11:29;;;;;;;24.75;18.00;;;;;;;7.01;100.00;99480.94;5012132;28;20149;-59
2022/09/28 00:14:00;;;;;;;27.25;19.15;;;;;;;7.02;100.00;99479.81;5012779;28;20017;-59
2022/09/28 00:16:28;;;;;;;25.63;19.30;;;;;;;7.03;100.00;99490.47;5012270;28;20044;-60
2022/09/28 00:18:54;;;;;;;26.50;19.70;;;;;;;7.04;100.00;99474.78;5012338;28;20065;-60
2022/09/28 00:21:23;;;;;;;25.50;19.25;;;;;;;6.99;100.00;99475.72;5012549;28;20054;-61
2022/09/28 00:24:11;;;;;;;26.55;19.85;;;;;;;7.02;100.00;99477.84;5012644;28;20030;-60
2022/09/28 00:26:39;;;;;;;25.58;19.60;;;;;;;7.02;100.00;99475.09;5012802;28;20133;-60
2022/09/28 00:29:07;;;;;;;30.25;20.83;;;;;;;7.06;100.00;99480.78;5012425;28;20030;-60
2022/09/28 00:31:34;;;;;;;27.67;20.42;;;;;;;7.05;100.00;99467.38;5012308;28;20036;-59
2022/09/28 00:34:00;;;;;;;26.63;20.02;;;;;;;7.04;100.00;99472.03;5011430;28;20038;-60
2022/09/28 00:36:28;;;;;;;27.52;20.63;;;;;;;7.01;100.00;99465.22;5011229;28;20503;-60
2022/09/28 00:38:55;;;;;;;26.40;19.40;;;;;;;7.03;100.00;99465.75;5010700;28;20064;-60
2022/09/28 00:41:22;;;;;;;27.75;20.10;;;;;;;7.02;100.00;99464.09;5012025;28;20026;-60
2022/09/28 00:43:48;;;;;;;27.55;20.30;;;;;;;7.01;100.00;99464.44;5012506;28;20373;-60
2022/09/28 00:46:34;;;;;;;27.02;19.58;;;;;;;6.93;100.00;99449.50;5012209;28;20034;-60
2022/09/28 00:49:06;;;;;;;26.48;19.70;;;;;;;7.03;100.00;99456.69;5012544;28;20037;-60
2022/09/28 00:51:33;;;;;;;26.52;19.40;;;;;;;7.05;100.00;99461.88;5012860;28;20129;-60
2022/09/28 00:54:03;;;;;;;26.75;19.65;;;;;;;7.07;100.00;99457.66;5012672;28;20077;-60
2022/09/28 00:56:31;;;;;;;26.08;19.52;;;;;;;7.05;100.00;99454.41;5011172;28;20026;-60
2022/09/28 00:58:58;;;;;;;25.98;19.92;;;;;;;7.08;100.00;99458.50;5012499;28;20033;-60
2022/09/28 01:01:25;;;;;;;26.42;19.45;;;;;;;7.08;100.00;99459.28;5012344;28;20111;-60
2022/09/28 01:03:50;;;;;;;26.23;19.33;;;;;;;7.11;100.00;99455.09;5012519;28;20057;-59
2022/09/28 01:06:26;;;;;;;28.52;18.50;;;;;;;7.08;100.00;99456.53;5011885;28;20540;-60
2022/09/28 01:08:57;;;;;;;24.55;18.60;;;;;;;7.10;100.00;99454.28;5012429;28;20025;-58
2022/09/28 01:11:23;;;;;;;25.63;18.73;;;;;;;7.12;100.00;99448.47;5011276;28;20030;-59
2022/09/28 01:13:52;;;;;;;24.05;17.83;;;;;;;7.05;100.00;99440.66;5013036;28;20049;-60
2022/09/28 01:16:49;;;;;;;24.25;18.75;;;;;;;7.14;100.00;99451.72;5010971;28;20381;-60
2022/09/28 01:19:36;;;;;;;24.92;19.13;;;;;;;7.13;100.00;99453.63;5012221;28;20466;-61
2022/09/28 01:22:13;;;;;;;23.30;17.80;;;;;;;7.09;100.00;99446.34;5012436;28;20030;-60
2022/09/28 01:24:44;;;;;;;25.35;18.17;;;;;;;7.04;100.00;99444.53;5011885;28;20030;-60
2022/09/28 01:27:29;;;;;;;24.55;17.70;;;;;;;6.90;100.00;99432.84;5011926;28;20026;-60
2022/09/28 01:30:09;;;;;;;23.60;17.85;;;;;;;6.92;100.00;99447.88;5011806;28;20104;-57
2022/09/28 01:33:03;;;;;;;24.17;18.05;;;;;;;6.81;100.00;99438.28;5011551;28;20485;-59
2022/09/28 01:35:50;;;;;;;;;;;;;;;6.92;100.00;99455.34;5021975;28;20645;-59
2022/09/28 01:38:18;;;;;;;24.20;17.33;;;;;;;6.83;100.00;99458.03;5031160;28;20315;-59
2022/09/28 01:40:46;;;;;;;22.88;16.98;;;;;;;6.77;100.00;99459.28;5029828;28;20029;-59
2022/09/28 01:43:19;;;;;;;25.02;17.52;;;;;;;6.61;100.00;99434.97;5031188;28;20037;-59
2022/09/28 01:45:52;;;;;;;23.80;17.65;;;;;;;6.67;100.00;99450.19;5032553;28;20045;-59
2022/09/28 01:48:30;;;;;;;24.35;18.63;;;;;;;6.76;100.00;99460.41;5034663;28;20129;-59
2022/09/28 01:50:59;;;;;;;26.27;18.80;;;;;;;6.64;100.00;99441.75;5034860;28;20035;-59
2022/09/28 01:53:34;;;;;;;25.48;18.35;;;;;;;6.63;100.00;99443.69;5034825;28;20021;-59
2022/09/28 01:56:11;;;;;;;24.30;18.73;;;;;;;6.66;100.00;99445.81;5035034;28;20108;-59
2022/09/28 01:58:42;;;;;;;24.63;18.25;;;;;;;6.65;100.00;99441.44;5034965;28;20026;-60
2022/09/28 02:01:19;;;;;;;24.98;19.10;;;;;;;6.72;100.00;99461.03;5034599;28;20049;-59
2022/09/28 02:04:12;;;;;;;26.23;19.45;;;;;;;6.76;100.00;99452.16;5034746;28;20105;-59
2022/09/28 02:06:46;;;;;;;27.50;20.63;;;;;;;6.66;100.00;99440.31;5034723;28;20057;-59
2022/09/28 02:09:20;;;;;;;26.92;20.15;;;;;;;6.69;100.00;99442.44;5034778;28;20072;-59
2022/09/28 02:11:52;;;;;;;27.73;20.58;;;;;;;6.80;100.00;99448.47;5034111;28;20045;-59
2022/09/28 02:14:18;;;;;;;25.83;20.33;;;;;;;6.81;100.00;99444.59;5034169;28;20418;-59
2022/09/28 02:16:48;;;;;;;26.35;21.45;;;;;;;6.84;100.00;99446.72;5034212;28;20026;-59
2022/09/28 02:19:20;;;;;;;27.77;20.95;;;;;;;6.76;100.00;99439.22;5034190;28;20017;-59
2022/09/28 02:21:48;;;;;;;28.80;21.90;;;;;;;6.89;100.00;99448.53;5033121;28;20112;-61
2022/09/28 02:24:42;;;;;;;27.50;21.50;;;;;;;6.91;100.00;99448.22;5034576;28;20044;-60
2022/09/28 02:27:33;;;;;;;27.27;21.38;;;;;;;6.86;100.00;99440.91;5028773;28;20049;-58
2022/09/28 02:29:58;;;;;;;29.02;22.17;;;;;;;6.94;100.00;99456.63;5034656;28;20104;-59
2022/09/28 02:32:26;;;;;;;27.45;21.70;;;;;;;6.92;100.00;99456.13;5033807;28;20057;-60
2022/09/28 02:34:52;;;;;;;27.05;21.38;;;;;;;6.92;100.00;99450.63;5033912;28;20104;-61
2022/09/28 02:37:18;;;;;;;28.00;22.27;;;;;;;6.96;100.00;99461.81;5034058;28;20033;-57
2022/09/28 02:39:43;;;;;;;27.35;21.60;;;;;;;6.96;100.00;99461.81;5034046;28;20079;-58
2022/09/28 02:42:24;;;;;;;28.58;22.02;;;;;;;6.87;100.00;99445.28;5034063;28;20037;-59
2022/09/28 02:45:06;;;;;;;27.20;22.27;;;;;;;6.86;100.00;99452.69;5034763;28;20029;-59
2022/09/28 02:47:59;;;;;;;28.60;21.33;;;;;;;6.93;100.00;99454.22;5034556;28;20629;-59
2022/09/28 02:50:42;;;;;;;27.73;20.67;;;;;;;6.89;100.00;99451.28;5034010;28;20025;-59
2022/09/28 02:53:45;;;;;;;28.02;21.25;;;;;;;6.88;100.00;99455.16;5034344;28;20022;-59
2022/09/28 02:56:13;;;;;;;29.10;21.00;;;;;;;6.85;100.00;99451.06;5033498;28;20421;-59
2022/09/28 02:58:51;;;;;;;29.60;21.55;;;;;;;6.74;100.00;99444.25;5032859;28;20030;-59
2022/09/28 03:01:19;;;;;;;26.00;19.77;;;;;;;6.82;100.00;99450.91;5034075;28;20377;-59
2022/09/28 03:03:52;;;;;;;26.23;19.85;;;;;;;6.72;100.00;99444.53;5033844;28;20468;-60
2022/09/28 03:06:32;;;;;;;25.70;19.77;;;;;;;6.82;100.00;99459.97;5033962;28;20438;-60
2022/09/28 03:09:09;;;;;;;26.83;19.73;;;;;;;6.75;100.00;99443.13;5033735;28;20036;-60
2022/09/28 03:11:53;;;;;;;25.50;19.00;;;;;;;6.74;100.00;99440.66;5034070;28;20426;-60
2022/09/28 03:14:19;;;;;;;26.30;19.30;;;;;;;6.82;100.00;99450.91;5033414;28;20057;-60
2022/09/28 03:16:45;;;;;;;25.35;18.63;;;;;;;6.79;100.00;99451.56;5033219;28;20055;-60
2022/09/28 03:19:15;;;;;;;26.50;19.08;;;;;;;6.67;100.00;99435.63;5033164;28;20441;-60
2022/09/28 03:21:41;;;;;;;26.50;18.98;;;;;;;6.79;100.00;99452.34;5033185;28;20038;-60
2022/09/28 03:24:08;;;;;;;26.38;17.88;;;;;;;6.76;100.00;99450.22;5031850;28;20033;-60
2022/09/28 03:26:33;;;;;;;25.00;18.52;;;;;;;6.82;100.00;99457.22;5032026;28;20026;-59
2022/09/28 03:28:58;;;;;;;26.40;17.80;;;;;;;6.82;100.00;99465.47;5033048;28;20136;-59
2022/09/28 03:31:24;;;;;;;25.70;17.80;;;;;;;6.81;100.00;99454.78;5033157;28;20053;-61
2022/09/28 03:33:52;;;;;;;24.05;17.73;;;;;;;6.78;100.00;99460.91;5033054;28;20089;-59
2022/09/28 03:36:17;;;;;;;25.33;16.98;;;;;;;6.76;100.00;99461.22;5032970;28;20102;-59
2022/09/28 03:38:43;;;;;;;23.85;17.10;;;;;;;6.72;100.00;99455.53;5033041;28;20113;-59
2022/09/28 03:41:08;;;;;;;24.13;16.80;;;;;;;6.70;100.00;99454.22;5033378;28;20346;-59
2022/09/28 03:43:34;;;;;;;23.27;16.00;;;;;;;6.69;100.00;99452.59;5033074;28;20056;-59
2022/09/28 03:46:00;;;;;;;22.70;16.05;;;;;;;6.68;100.00;99456.47;5033055;28;20207;-60
2022/09/28 03:48:28;;;;;;;22.92;16.13;;;;;;;6.65;100.00;99449.69;5033042;28;20521;-59
2022/09/28 03:50:55;;;;;;;23.52;16.45;;;;;;;6.65;100.00;99460.69;5033342;28;20423;-59
2022/09/28 03:53:20;;;;;;;25.15;16.15;;;;;;;6.63;100.00;99460.16;5033017;28;20022;-59
2022/09/28 03:55:46;;;;;;;22.70;16.38;;;;;;;6.63;100.00;99462.91;5032541;28;20017;-60
2022/09/28 03:58:11;;;;;;;22.10;15.25;;;;;;;6.61;100.00;99465.19;5032903;28;20484;-59
2022/09/28 04:00:37;;;;;;;21.23;14.45;;;;;;;6.60;100.00;99466.31;5033304;28;20029;-60
2022/09/28 04:03:03;;;;;;;24.98;16.10;;;;;;;6.62;100.00;99461.28;5032947;28;20064;-59
2022/09/28 04:05:28;;;;;;;22.55;14.82;;;;;;;6.59;100.00;99469.34;5032458;28;20057;-59
2022/09/28 04:07:56;;;;;;;21.85;13.40;;;;;;;6.59;100.00;99467.44;5032628;28;20457;-59
2022/09/28 04:10:22;;;;;;;20.88;13.70;;;;;;;6.56;100.00;99466.09;5032919;28;20160;-60
2022/09/28 04:12:48;;;;;;;21.98;14.60;;;;;;;6.59;100.00;99461.94;5032140;28;20152;-59
2022/09/28 04:15:14;;;;;;;20.10;13.32;;;;;;;6.59;100.00;99452.88;5032286;28;20051;-59
2022/09/28 04:17:39;;;;;;;22.10;13.38;;;;;;;6.59;100.00;99461.13;5030442;28;20530;-59
2022/09/28 04:20:05;;;;;;;21.35;13.73;;;;;;;6.55;100.00;99463.69;5032129;28;20048;-59
2022/09/28 04:22:31;;;;;;;19.50;12.98;;;;;;;6.53;100.00;99463.16;5030438;28;20385;-59
2022/09/28 04:24:57;;;;;;;19.40;13.10;;;;;;;6.53;100.00;99465.91;5032413;28;20037;-60
2022/09/28 04:30:07;;;;;;;20.80;13.00;;;;;;;6.48;100.00;99464.13;5012209;28;20052;-58
2022/09/28 04:32:32;;;;;;;19.80;13.27;;;;;;;6.47;100.00;99462.47;5012048;28;20030;-58
2022/09/28 04:34:57;;;;;;;20.52;13.55;;;;;;;6.45;100.00;99453.75;5012374;28;20467;-58
2022/09/28 04:37:23;;;;;;;21.33;13.35;;;;;;;6.42;100.00;99450.84;5012210;28;20026;-59
2022/09/28 04:39:48;;;;;;;19.60;12.55;;;;;;;6.40;100.00;99448.38;5012505;28;20033;-60
2022/09/28 04:42:13;;;;;;;20.63;13.05;;;;;;;6.35;100.00;99451.28;5012011;28;20030;-59
2022/09/28 04:44:38;;;;;;;19.75;12.82;;;;;;;6.32;100.00;99452.72;5011799;28;20026;-59
2022/09/28 04:47:04;;;;;;;19.25;13.50;;;;;;;6.29;100.00;99458.00;5011890;28;20112;-60
2022/09/28 04:49:29;;;;;;;20.42;13.55;;;;;;;6.30;100.00;99459.63;5012271;28;20088;-60
2022/09/28 04:51:54;;;;;;;19.80;13.07;;;;;;;6.24;100.00;99457.00;5012676;28;20018;-61
2022/09/28 04:54:20;;;;;;;19.98;13.02;;;;;;;6.20;100.00;99469.72;5012227;28;20156;-60
2022/09/28 04:56:45;;;;;;;22.20;13.15;;;;;;;6.19;100.00;99470.03;5011908;28;20124;-60
2022/09/28 04:59:12;;;;;;;19.75;12.48;;;;;;;6.17;100.00;99472.28;5010283;28;20457;-60
2022/09/28 05:01:37;;;;;;;19.30;12.73;;;;;;;6.13;100.00;99477.59;5010257;28;20393;-60
2022/09/28 05:04:02;;;;;;;19.60;12.70;;;;;;;6.15;100.00;99472.59;5011753;28;20041;-59
2022/09/28 05:06:29;;;;;;;20.70;12.75;;;;;;;6.06;100.00;99463.47;5010704;28;20117;-59
2022/09/28 05:08:56;;;;;;;18.95;12.73;;;;;;;6.12;100.00;99481.44;5012520;28;20076;-60
2022/09/28 05:11:21;;;;;;;19.48;12.55;;;;;;;6.07;100.00;99485.13;5013250;28;20030;-60
2022/09/28 05:13:47;;;;;;;20.17;13.07;;;;;;;6.06;100.00;99475.25;5012747;28;20117;-60
2022/09/28 05:16:14;;;;;;;18.70;12.77;;;;;;;6.11;100.00;99484.50;5013094;28;20069;-60
2022/09/28 05:18:40;;;;;;;20.65;13.18;;;;;;;6.09;100.00;99488.38;5012060;28;20034;-61
2022/09/28 05:21:11;;;;;;;19.70;12.73;;;;;;;6.07;100.00;99478.84;5014395;28;20033;-60
2022/09/28 05:23:37;;;;;;;19.40;12.20;;;;;;;6.06;100.00;99485.44;5016191;28;20049;-60
2022/09/28 05:26:02;;;;;;;20.25;12.90;;;;;;;6.04;100.00;99491.25;5013980;28;20057;-60
2022/09/28 05:28:30;;;;;;;18.85;12.38;;;;;;;6.01;100.00;99489.13;5015651;28;20041;-60
2022/09/28 05:31:03;;;;;;;19.00;12.38;;;;;;;5.91;100.00;99479.13;5015769;28;20048;-63
2022/09/28 05:33:29;;;;;;;17.80;11.88;;;;;;;5.99;100.00;99490.53;5016195;28;20041;-59
2022/09/28 05:35:55;;;;;;;19.08;12.45;;;;;;;5.98;100.00;99489.69;5015937;28;20433;-59
2022/09/28 05:38:21;;;;;;;20.10;12.90;;;;;;;5.94;100.00;99483.22;5014423;28;20061;-59
2022/09/28 05:40:46;;;;;;;18.02;12.50;;;;;;;5.99;100.00;99482.28;5015627;28;20034;-60
2022/09/28 05:43:11;;;;;;;19.17;12.88;;;;;;;6.03;100.00;99486.03;5014688;28;20030;-60
2022/09/28 05:45:37;;;;;;;19.50;12.18;;;;;;;6.03;100.00;99486.88;5014734;28;20033;-60
2022/09/28 05:48:02;;;;;;;19.13;12.30;;;;;;;6.06;100.00;99491.72;5015705;28;20172;-60
2022/09/28 05:50:28;;;;;;;17.88;12.00;;;;;;;6.08;100.00;99485.94;5015659;28;20034;-60
2022/09/28 05:53:01;;;;;;;17.63;11.75;;;;;;;5.98;100.00;99473.22;5015123;28;20156;-61
2022/09/28 05:55:27;;;;;;;;;;;;;;;6.13;100.00;99494.06;5014867;28;20026;-60
2022/09/28 05:57:52;;;;;;;17.50;10.95;;;;;;;6.16;100.00;99492.63;5014986;28;19913;-61
2022/09/28 06:00:17;;;;;;;16.85;10.80;;;;;;;6.19;100.00;99492.00;5015196;28;20057;-60
2022/09/28 06:02:43;;;;;;;18.83;10.63;;;;;;;6.20;100.00;99493.63;5015747;28;20018;-60
2022/09/28 06:05:08;;;;;;;17.20;11.20;;;;;;;6.20;100.00;99491.69;5015038;28;20029;-61
2022/09/28 06:07:34;;;;;;;18.67;11.90;;;;;;;6.22;100.00;99494.16;5014886;28;20343;-61
2022/09/28 06:09:59;;;;;;;17.90;11.27;;;;;;;6.20;100.00;99502.69;5013712;28;20022;-58
2022/09/28 06:12:24;;;;;;;18.52;11.63;;;;;;;6.18;100.00;99513.19;5012629;28;20073;-61
2022/09/28 06:14:50;;;;;;;17.45;11.38;;;;;;;6.20;100.00;99512.84;5013932;28;20026;-60
2022/09/28 06:17:15;;;;;;;16.25;10.75;;;;;;;6.22;100.00;99507.88;5014627;28;20133;-60
2022/09/28 06:19:40;;;;;;;18.20;11.23;;;;;;;6.28;100.00;99516.81;5014841;28;20109;-59
2022/09/28 06:22:06;;;;;;;16.88;11.40;;;;;;;6.28;100.00;99514.88;5014870;28;20034;-60
2022/09/28 06:24:31;;;;;;;16.48;10.82;;;;;;;6.29;100.00;99519.25;5014882;28;20128;-60
2022/09/28 06:26:56;;;;;;;16.63;10.88;;;;;;;6.31;100.00;99519.75;5014883;28;20021;-60
2022/09/28 06:29:22;;;;;;;16.20;10.52;;;;;;;6.27;100.00;99509.69;5014583;28;20109;-60
2022/09/28 06:31:47;;;;;;;18.27;11.38;;;;;;;6.31;100.00;99517.00;5014596;28;20049;-59
2022/09/28 06:34:13;;;;;;;16.00;11.10;;;;;;;6.31;100.00;99517.00;5014595;28;20108;-60
2022/09/28 06:36:39;;;;;;;16.10;10.48;;;;;;;6.33;100.00;99522.97;5014647;28;20034;-59
2022/09/28 06:39:05;;;;;;;16.25;10.82;;;;;;;6.31;100.00;99519.75;5014330;28;20053;-59
2022/09/28 06:41:31;;;;;;;15.82;10.77;;;;;;;6.28;100.00;99516.81;5014180;28;20462;-60
2022/09/28 06:43:57;;;;;;;15.88;10.32;;;;;;;6.32;100.00;99526.88;5014328;28;20030;-59
2022/09/28 06:46:22;;;;;;;15.23;9.98;;;;;;;6.35;100.00;99528.97;5014736;28;20022;-59
2022/09/28 06:48:48;;;;;;;17.13;9.98;;;;;;;6.40;100.00;99528.03;5014536;28;20040;-59
2022/09/28 06:51:14;;;;;;;16.42;10.20;;;;;;;6.44;100.00;99533.72;5014346;28;20068;-59
2022/09/28 06:53:40;;;;;;;16.33;10.27;;;;;;;6.46;100.00;99531.50;5014418;28;20042;-59
2022/09/28 06:56:09;;;;;;;17.20;10.10;;;;;;;6.50;100.00;99536.06;5014230;28;20022;-59
2022/09/28 06:58:34;;;;;;;17.25;10.65;;;;;;;6.55;100.00;99540.63;5013354;28;20113;-60
2022/09/28 07:01:00;;;;;;;17.48;10.40;;;;;;;6.59;100.00;99538.06;5014150;28;20041;-60
2022/09/28 07:03:26;;;;;;;18.35;10.25;;;;;;;6.65;100.00;99542.31;5013399;28;20117;-59
2022/09/28 07:05:54;;;;;;;17.60;10.85;;;;;;;6.72;100.00;99546.25;5013431;28;20034;-59
2022/09/28 07:08:25;;;;;;;17.98;11.02;;;;;;;6.64;100.00;99532.44;5014233;28;20385;-60
2022/09/28 07:10:57;;;;;;;17.80;10.98;;;;;;;6.79;100.00;99545.81;5014133;28;20048;-59
2022/09/28 07:13:27;;;;;;;16.63;10.48;;;;;;;6.83;100.00;99552.31;5012363;28;20042;-60
2022/09/28 07:16:00;;;;;;;18.25;11.02;;;;;;;6.90;100.00;99557.34;5014167;28;20108;-61
2022/09/28 07:18:27;;;;;;;18.30;11.30;;;;;;;6.94;100.00;99546.56;5013472;28;20040;-60
2022/09/28 07:20:56;;;;;;;18.23;11.68;;;;;;;7.01;100.00;99550.47;5013054;28;20129;-60
2022/09/28 07:23:21;;;;;;;17.52;10.73;;;;;;;7.03;100.00;99556.47;5013448;28;20026;-59
2022/09/28 07:25:48;;;;;;;18.30;10.90;;;;;;;7.10;100.00;99549.72;5013207;28;20099;-59
2022/09/28 07:28:14;;;;;;;18.05;11.60;;;;;;;7.13;100.00;99560.91;5013358;28;20041;-61
2022/09/28 07:30:41;;;;;;;18.02;11.20;;;;;;;7.20;100.00;99557.69;5013037;28;20030;-60
2022/09/28 07:33:09;;;;;;;17.65;11.40;;;;;;;7.26;100.00;99561.13;5013591;28;20053;-60
2022/09/28 07:35:34;;;;;;;18.25;11.77;;;;;;;7.30;100.00;99557.44;5013295;28;20358;-60
2022/09/28 07:38:02;;;;;;;17.45;10.93;;;;;;;7.38;100.00;99564.13;5012827;28;20030;-60
2022/09/28 07:43:13;;;;;;;18.98;11.63;;;;;;;7.49;100.00;99572.91;5012937;28;20064;-59
2022/09/28 07:45:41;;;;;;;17.67;11.65;;;;;;;7.55;100.00;99565.31;5012837;28;20026;-61
2022/09/28 07:48:07;;;;;;;18.65;11.05;;;;;;;7.61;100.00;99573.13;5013402;28;20030;-60
2022/09/28 07:50:32;;;;;;;17.38;10.75;;;;;;;7.65;100.00;99579.59;5013377;28;20026;-59
2022/09/28 07:52:59;;;;;;;18.77;11.05;;;;;;;7.74;100.00;99571.38;5012176;28;20038;-61
2022/09/28 07:55:25;;;;;;;17.38;10.45;;;;;;;7.84;100.00;99575.78;5013105;28;20449;-61
2022/09/28 07:57:55;;;;;;;18.10;10.65;;;;;;;7.92;100.00;99574.19;5013032;28;20025;-61
2022/09/28 08:00:20;;;;;;;17.95;11.02;;;;;;;7.97;100.00;99577.63;5013210;28;20037;-60
2022/09/28 08:02:47;;;;;;;18.98;11.00;;;;;;;8.03;100.00;99569.22;5013001;28;20030;-60
2022/09/28 08:05:12;;;;;;;18.52;11.60;;;;;;;8.03;100.00;99566.47;5030861;28;20357;-59
2022/09/28 08:07:37;;;;;;;17.70;10.95;;;;;;;8.17;100.00;99569.88;5033071;28;20053;-60
2022/09/28 08:10:04;;;;;;;17.85;10.60;;;;;;;8.22;100.00;99571.69;5008882;28;20080;-60
2022/09/28 08:12:29;;;;;;;17.73;11.35;;;;;;;8.28;100.00;99581.41;4991564;28;20050;-60
2022/09/28 08:14:55;;;;;;;17.67;10.90;;;;;;;8.36;100.00;99577.84;4991430;28;20048;-60
2022/09/28 08:17:20;;;;;;;17.92;11.27;;;;;;;8.43;100.00;99572.69;4990810;28;20038;-60
2022/09/28 08:22:31;;;;;;;18.40;11.30;;;;;;;8.62;100.00;99585.38;4991137;28;20049;-60
2022/09/28 08:24:56;;;;;;;19.90;10.98;;;;;;;8.72;100.00;99586.97;4990849;28;20034;-60
2022/09/28 08:27:22;;;;;;;18.02;11.27;;;;;;;8.78;100.00;99585.69;4989737;28;20035;-58
2022/09/28 08:29:47;;;;;;;16.65;10.77;;;;;;;8.86;100.00;99590.41;4989315;28;20030;-58
2022/09/28 08:32:13;;;;;;;19.45;11.05;;;;;;;8.90;100.00;99591.34;4990310;28;20041;-60
2022/09/28 08:34:40;;;;;;;18.70;11.32;;;;;;;8.99;100.00;99601.56;5002269;28;20048;-59
2022/09/28 08:37:08;;;;;;;18.33;11.32;;;;;;;9.05;100.00;99597.53;5010083;28;20137;-59
2022/09/28 08:39:34;;;;;;;18.80;11.35;;;;;;;9.15;100.00;99602.72;5010224;28;20022;-59
2022/09/28 08:42:38;;;;;;;19.58;12.52;;;;;;;9.28;100.00;99600.88;5010403;28;20057;-59
2022/09/28 08:45:13;;;;;;;18.83;12.07;;;;;;;9.31;100.00;99588.38;5010383;28;20038;-59
2022/09/28 08:50:38;;;;;;;19.17;11.90;;;;;;;9.58;100.00;99616.72;5010707;28;20397;-60
2022/09/28 08:53:33;;;;;;;18.63;11.93;;;;;;;9.73;100.00;99610.66;5008925;28;20121;-60
2022/09/28 08:56:01;;;;;;;;;;;;;;;9.88;100.00;99608.50;5012227;28;20482;-62
2022/09/28 08:58:36;;;;;;;16.88;10.60;;;;;;;9.92;98.36;99624.06;5011498;28;19925;-62
2022/09/28 09:01:06;;;;;;;17.65;10.40;;;;;;;9.88;98.98;99627.81;5012563;28;20029;-60
2022/09/28 09:03:40;;;;;;;19.08;11.50;;;;;;;9.83;98.73;99624.09;5012535;28;20030;-60
2022/09/28 09:06:41;;;;;;;18.30;10.70;;;;;;;9.80;98.98;99633.06;5012533;28;20038;-60
2022/09/28 09:09:21;;;;;;;20.83;10.75;;;;;;;9.90;98.73;99631.06;5012621;28;20104;-60
2022/09/28 09:12:08;;;;;;;17.23;10.75;;;;;;;9.94;98.45;99619.03;4976124;28;1054885;-60
2022/09/28 09:14:55;;;;;;;16.45;10.55;;;;;;;10.15;97.41;99630.13;5013765;28;20049;-60
2022/09/28 09:17:58;;;;;;;16.70;10.40;;;;;;;10.32;97.17;99624.84;5013453;28;20108;-60
2022/09/28 09:20:44;;;;;;;17.92;10.43;;;;;;;10.34;95.81;99622.56;5013440;28;20030;-61
2022/09/28 09:23:27;;;;;;;16.65;10.70;;;;;;;10.48;95.79;99630.63;5013364;28;20057;-60
2022/09/28 09:25:56;;;;;;;16.85;10.80;;;;;;;10.60;95.31;99630.69;5013533;28;20113;-61
2022/09/28 09:28:37;;;;;;;16.95;10.77;;;;;;;10.72;94.52;99636.31;5011754;28;20026;-60
2022/09/28 09:31:20;;;;;;;17.30;10.27;;;;;;;10.85;94.23;99636.41;5013655;28;20030;-60
2022/09/28 09:34:21;;;;;;;17.90;10.80;;;;;;;10.86;94.16;99638.03;5013146;28;20029;-60
2022/09/28 09:37:23;;;;;;;15.60;10.25;;;;;;;11.05;94.00;99641.09;5003723;28;20367;-61
2022/09/28 09:40:00;;;;;;;18.83;10.15;;;;;;;11.17;91.79;99645.88;5012891;28;20030;-61
2022/09/28 09:42:59;;;;;;;16.20;10.32;;;;;;;11.20;91.71;99627.78;5013441;28;20038;-61
2022/09/28 09:45:40;;;;;;;18.20;11.20;;;;;;;11.56;91.25;99648.44;5013211;28;20099;-60
2022/09/28 09:48:13;;;;;;;17.65;10.50;;;;;;;11.73;90.85;99641.91;5013172;28;20030;-60
2022/09/28 09:50:48;;;;;;;16.02;10.30;;;;;;;11.97;88.91;99654.16;5013231;28;20044;-61
2022/09/28 09:53:42;;;;;;;18.45;10.68;;;;;;;11.90;89.17;99632.56;5013125;28;20537;-59
2022/09/28 09:56:20;;;;;;;15.95;10.02;;;;;;;12.04;86.01;99648.06;5010909;28;20088;-60
2022/09/28 09:58:52;;;;;;;19.05;9.93;;;;;;;11.98;85.40;99645.53;5012975;28;20038;-60
2022/09/28 10:01:22;;;;;;;18.13;10.55;;;;;;;12.08;86.03;99646.25;5013339;28;20514;-60
2022/09/28 10:03:48;;;;;;;16.05;10.40;;;;;;;12.27;84.27;99653.97;5012913;28;20030;-60
2022/09/28 10:06:30;;;;;;;16.50;10.13;;;;;;;12.40;85.50;99649.22;5012331;28;20037;-60
2022/09/28 10:09:26;;;;;;;17.45;10.30;;;;;;;12.74;85.71;99652.66;5013008;28;20034;-60
2022/09/28 10:11:52;;;;;;;15.10;9.48;;;;;;;12.72;82.41;99650.22;5012727;28;20053;-60
2022/09/28 10:14:21;;;;;;;14.75;9.10;;;;;;;12.39;81.51;99626.25;5013027;28;20128;-60
2022/09/28 10:16:48;;;;;;;17.15;10.25;;;;;;;12.45;83.90;99649.81;5013062;28;20034;-60
2022/09/28 10:19:18;;;;;;;14.65;9.82;;;;;;;12.35;84.00;99643.94;5012674;28;20470;-61
2022/09/28 10:21:45;;;;;;;17.27;9.63;;;;;;;12.20;84.19;99648.19;5012722;28;20438;-60
2022/09/28 10:24:16;;;;;;;15.30;9.27;;;;;;;12.07;82.40;99656.50;5012792;28;20053;-60
2022/09/28 10:26:47;;;;;;;14.52;9.30;;;;;;;11.90;81.64;99646.44;5012304;28;20041;-60
2022/09/28 10:29:19;;;;;;;12.90;8.60;;;;;;;11.94;82.91;99647.34;5011382;28;20030;-60
2022/09/28 10:31:50;;;;;;;13.73;8.77;;;;;;;11.97;83.70;99654.16;5012604;28;20026;-60
2022/09/28 10:34:18;;;;;;;13.25;9.20;;;;;;;11.96;82.34;99636.72;5012525;28;20105;-60
2022/09/28 10:37:03;;;;;;;15.75;9.18;;;;;;;12.23;81.88;99642.78;5012265;28;20048;-60
2022/09/28 10:39:52;;;;;;;15.07;9.27;;;;;;;12.46;82.73;99645.88;5012246;28;20113;-60
2022/09/28 10:42:21;;;;;;;12.65;8.73;;;;;;;12.67;80.28;99644.09;5012304;28;20200;-60
2022/09/28 10:44:54;;;;;;;13.90;8.80;;;;;;;12.84;79.39;99634.69;5011959;28;20440;-60
2022/09/28 10:47:23;;;;;;;11.63;8.50;;;;;;;13.02;78.29;99647.13;5010234;28;20034;-60
2022/09/28 10:49:49;;;;;;;13.57;7.97;;;;;;;13.05;77.74;99637.28;5010535;28;20042;-60
2022/09/28 10:52:40;;;;;;;12.75;8.30;;;;;;;13.08;78.37;99625.50;5008512;28;20161;-61
2022/09/28 10:55:32;;;;;;;12.57;8.45;;;;;;;13.29;77.33;99630.81;5011717;28;20029;-60
2022/09/28 10:58:22;;;;;;;12.85;8.52;;;;;;;13.38;75.56;99628.69;4998948;28;20129;-59
2022/09/28 11:00:48;;;;;;;12.35;8.10;;;;;;;13.39;73.25;99635.09;4999126;28;20393;-59
2022/09/28 11:03:26;;;;;;;12.95;8.40;;;;;;;13.41;75.92;99644.69;5000015;28;20030;-59
2022/09/28 11:06:04;;;;;;;14.07;8.45;;;;;;;13.17;74.87;99614.25;5012233;28;20072;-59
2022/09/28 11:08:36;;;;;;;12.05;8.88;;;;;;;13.38;76.44;99616.78;5006294;28;20078;-60
2022/09/28 11:11:19;;;;;;;11.73;8.68;;;;;;;13.64;77.65;99626.63;5006278;28;20157;-60
2022/09/28 11:14:01;;;;;;;12.75;8.10;;;;;;;13.60;75.57;99623.75;5008720;28;20516;-60
2022/09/28 11:16:29;;;;;;;12.75;8.80;;;;;;;13.35;74.93;99604.44;5011747;28;20033;-60
2022/09/28 11:18:57;;;;;;;15.45;9.65;;;;;;;13.47;76.60;99616.66;5011700;28;20144;-60
2022/09/28 11:21:26;;;;;;;15.48;9.30;;;;;;;13.50;75.38;99619.53;5012524;28;20105;-60
2022/09/28 11:24:04;;;;;;;12.95;8.27;;;;;;;13.71;75.58;99632.38;5009725;28;20022;-60
2022/09/28 11:26:36;;;;;;;12.25;8.45;;;;;;;13.66;75.25;99624.31;5010822;28;20480;-59
2022/09/28 11:29:02;;;;;;;12.85;8.50;;;;;;;13.90;75.38;99628.91;5009636;28;20029;-60
2022/09/28 11:31:29;;;;;;;12.43;8.20;;;;;;;14.03;74.09;99624.03;5010889;28;20041;-60
2022/09/28 11:34:21;;;;;;;14.75;8.55;;;;;;;14.22;74.98;99630.84;5010870;28;20389;-60
2022/09/28 11:37:10;;;;;;;12.80;8.82;;;;;;;14.37;73.43;99623.66;5010607;28;20431;-58
2022/09/28 11:40:06;;;;;;;17.10;10.80;;;;;;;14.58;73.94;99626.09;5009706;28;20030;-60
2022/09/28 11:42:50;;;;;;;16.90;9.60;;;;;;;14.49;72.10;99627.13;5008433;28;20026;-59
2022/09/28 11:45:39;;;;;;;18.60;11.07;;;;;;;14.25;73.99;99625.38;5010212;28;20473;-61
2022/09/28 11:48:09;;;;;;;34.00;19.05;;;;;;;13.88;73.16;99604.25;5010044;28;20056;-58
2022/09/28 11:51:05;;;;;;;31.92;21.10;;;;;;;14.02;75.27;99625.22;5010294;28;20048;-58